Pittsburgh, Pennsylvania
Traffic Map
Current Weather Conditions
Pittsburgh, Pennsylvania
Broken Clouds
Broken Clouds
82°
Feels Like: 84°
Wind Chill: 82° Ceiling: 3900
Heat Index: 84° Visibility: 8mi
Dew Point: 67° Wind: 13mph
Humidity: 60% Direction: 270° (W)
Pressure: 29.96in Gusts: 16mph
Raw Report DataKAGC 231853Z 27011G14KT 8SM SCT032 BKN039 BKN046 28/19 A2996 RMK AO2 SLP139 T02780194
Traffic Incident Summary
Active as of:
Severity:
Category:
InformationThere was an issue retrieving the traffic information for this location. Please try a different location or try again shortly.
Advertisements
Track Severe Weather on mobile